createdAt,value
2018-08-30T00:00:53.273Z,20.10
2018-08-30T00:03:20.441Z,20.08
2018-08-30T00:05:47.530Z,20.00
2018-08-30T00:08:14.736Z,19.92
2018-08-30T00:10:41.949Z,19.94
2018-08-30T00:13:09.093Z,20.00
2018-08-30T00:15:36.226Z,20.06
2018-08-30T00:18:03.404Z,20.06
2018-08-30T00:20:30.521Z,19.96
2018-08-30T00:22:57.830Z,19.86
2018-08-30T00:25:25.035Z,19.93
2018-08-30T00:27:52.229Z,19.81
2018-08-30T00:30:19.332Z,19.71
2018-08-30T00:32:46.428Z,19.71
2018-08-30T00:35:13.601Z,19.74
2018-08-30T00:37:40.689Z,19.77
2018-08-30T00:40:07.829Z,19.83
2018-08-30T00:42:34.926Z,19.82
2018-08-30T00:45:02.068Z,19.80
2018-08-30T00:47:29.162Z,19.81
2018-08-30T00:49:56.299Z,19.82
2018-08-30T00:52:23.405Z,19.71
2018-08-30T00:54:50.523Z,19.69
2018-08-30T00:57:18.092Z,19.67
2018-08-30T00:59:45.452Z,19.72
2018-08-30T01:02:12.557Z,19.75
2018-08-30T01:04:39.697Z,19.75
2018-08-30T01:07:06.836Z,19.77
2018-08-30T01:09:34.105Z,19.78
2018-08-30T01:12:01.246Z,19.70
2018-08-30T01:14:28.419Z,19.64
2018-08-30T01:16:55.551Z,19.47
2018-08-30T01:19:22.706Z,19.45
2018-08-30T01:21:49.900Z,19.50
2018-08-30T01:24:17.118Z,19.47
2018-08-30T01:26:44.419Z,19.32
2018-08-30T01:29:11.594Z,19.30
2018-08-30T01:31:38.759Z,19.23
2018-08-30T01:34:05.889Z,19.15
2018-08-30T01:36:33.052Z,19.18
2018-08-30T01:39:00.187Z,19.22
2018-08-30T01:41:27.338Z,19.16
2018-08-30T01:43:54.481Z,19.13
2018-08-30T01:46:21.610Z,19.17
2018-08-30T01:48:48.700Z,19.13
2018-08-30T01:51:15.840Z,19.14
2018-08-30T01:53:42.944Z,19.26
2018-08-30T01:56:10.049Z,19.24
2018-08-30T01:58:37.171Z,19.24
2018-08-30T02:01:04.449Z,19.27
2018-08-30T02:03:31.620Z,19.28
2018-08-30T02:05:58.766Z,19.30
2018-08-30T02:08:25.958Z,19.30
2018-08-30T02:10:53.145Z,19.23
2018-08-30T02:13:20.279Z,19.21
2018-08-30T02:15:47.402Z,19.18
2018-08-30T02:18:14.574Z,19.23
2018-08-30T02:20:41.689Z,19.24
2018-08-30T02:23:08.880Z,19.05
2018-08-30T02:25:35.979Z,19.07
2018-08-30T02:28:03.123Z,19.02
2018-08-30T02:30:30.208Z,18.90
2018-08-30T02:32:57.330Z,18.90
2018-08-30T02:35:24.441Z,18.94
2018-08-30T02:37:51.574Z,18.88
2018-08-30T02:40:18.666Z,18.88
2018-08-30T02:42:45.849Z,18.89
2018-08-30T02:45:12.968Z,18.85
2018-08-30T02:47:40.079Z,18.92
2018-08-30T02:50:07.194Z,18.89
2018-08-30T02:52:34.486Z,18.78
2018-08-30T02:55:01.638Z,18.68
2018-08-30T02:57:28.779Z,18.78
2018-08-30T02:59:55.901Z,18.78
2018-08-30T03:02:23.094Z,18.80
2018-08-30T03:04:50.229Z,18.81
2018-08-30T03:07:17.320Z,18.90
2018-08-30T03:09:44.456Z,18.87
2018-08-30T03:12:11.559Z,18.82
2018-08-30T03:14:38.682Z,18.87
2018-08-30T03:17:05.781Z,18.92
2018-08-30T03:19:32.932Z,18.92
2018-08-30T03:22:00.117Z,18.81
2018-08-30T03:24:27.267Z,18.74
2018-08-30T03:26:54.416Z,18.69
2018-08-30T03:29:21.626Z,18.63
2018-08-30T03:31:48.725Z,18.58
2018-08-30T03:34:16.513Z,18.58
2018-08-30T03:36:43.688Z,18.62
2018-08-30T03:39:10.828Z,18.70
2018-08-30T03:41:37.964Z,18.69
2018-08-30T03:44:05.081Z,18.67
2018-08-30T03:46:32.182Z,18.56
2018-08-30T03:48:59.298Z,18.50
2018-08-30T03:51:26.433Z,18.35
2018-08-30T03:53:53.534Z,18.41
2018-08-30T03:56:20.646Z,18.37
2018-08-30T03:58:47.751Z,18.34
2018-08-30T04:01:14.884Z,18.30
2018-08-30T04:03:42.160Z,18.24
2018-08-30T04:06:09.362Z,18.18
2018-08-30T04:08:36.512Z,18.23
2018-08-30T04:11:03.671Z,18.31
2018-08-30T04:13:30.803Z,18.28
2018-08-30T04:15:57.970Z,18.37
2018-08-30T04:18:25.118Z,18.38
2018-08-30T04:20:52.232Z,18.43
2018-08-30T04:23:19.386Z,18.43
2018-08-30T04:25:46.498Z,18.34
2018-08-30T04:28:13.656Z,18.28
2018-08-30T04:30:40.759Z,18.29
2018-08-30T04:33:07.918Z,18.31
2018-08-30T04:35:35.106Z,18.34
2018-08-30T04:38:02.281Z,18.41
2018-08-30T04:40:29.437Z,18.41
2018-08-30T04:42:56.678Z,18.38
2018-08-30T04:45:23.801Z,18.41
2018-08-30T04:47:50.970Z,18.43
2018-08-30T04:50:18.214Z,18.51
2018-08-30T04:52:45.281Z,18.45
2018-08-30T04:55:12.408Z,18.46
2018-08-30T04:57:39.547Z,18.44
2018-08-30T05:00:06.722Z,18.40
2018-08-30T05:02:33.885Z,18.43
2018-08-30T05:05:01.091Z,18.43
2018-08-30T05:07:29.022Z,18.36
2018-08-30T05:09:56.245Z,18.34
2018-08-30T05:12:23.353Z,18.45
2018-08-30T05:14:50.513Z,18.51
2018-08-30T05:17:17.629Z,18.56
2018-08-30T05:19:44.757Z,18.51
2018-08-30T05:22:11.939Z,18.49
2018-08-30T05:24:39.086Z,18.48
2018-08-30T05:27:06.266Z,18.46
2018-08-30T05:29:33.599Z,18.50
2018-08-30T05:32:00.730Z,18.43
2018-08-30T05:34:27.876Z,18.55
2018-08-30T05:36:55.685Z,18.51
2018-08-30T05:39:22.874Z,18.53
2018-08-30T05:41:50.014Z,18.40
2018-08-30T05:44:17.167Z,18.66
2018-08-30T05:46:44.416Z,18.62
2018-08-30T05:49:11.538Z,18.66
2018-08-30T05:51:38.782Z,18.64
2018-08-30T05:54:06.072Z,18.61
2018-08-30T05:56:33.265Z,18.65
2018-08-30T05:59:00.394Z,18.71
2018-08-30T06:01:27.645Z,18.78
2018-08-30T06:03:54.818Z,18.78
2018-08-30T06:06:22.015Z,18.79
2018-08-30T06:08:49.158Z,18.75
2018-08-30T06:11:16.313Z,18.73
2018-08-30T06:13:43.435Z,18.77
2018-08-30T06:16:10.641Z,18.69
2018-08-30T06:18:38.191Z,18.68
2018-08-30T06:21:05.708Z,18.62
2018-08-30T06:23:32.881Z,18.66
2018-08-30T06:26:00.060Z,18.66
2018-08-30T06:28:28.016Z,18.70
2018-08-30T06:30:55.529Z,18.67
2018-08-30T06:33:22.679Z,18.78
2018-08-30T06:38:23.789Z,18.88
2018-08-30T06:40:51.284Z,19.01
2018-08-30T06:43:18.717Z,18.98
2018-08-30T06:45:45.966Z,18.98
2018-08-30T06:48:13.520Z,18.98
2018-08-30T06:50:42.480Z,19.05
2018-08-30T06:53:09.695Z,19.07
2018-08-30T06:55:36.850Z,19.10
2018-08-30T06:58:03.995Z,19.06
2018-08-30T07:00:31.167Z,19.11
2018-08-30T07:02:58.357Z,19.17
2018-08-30T07:05:26.085Z,19.25
2018-08-30T07:07:53.414Z,19.23
2018-08-30T07:10:20.882Z,19.26
2018-08-30T07:12:48.107Z,19.40
2018-08-30T07:15:15.314Z,19.56
2018-08-30T07:17:42.610Z,19.55
2018-08-30T07:20:09.807Z,19.59
2018-08-30T07:22:37.460Z,19.53
2018-08-30T07:25:04.988Z,19.46
2018-08-30T07:27:32.169Z,19.44
2018-08-30T07:29:59.302Z,19.43
2018-08-30T07:32:26.801Z,19.40
2018-08-30T07:34:54.097Z,19.34
2018-08-30T07:37:21.134Z,19.49
2018-08-30T07:39:48.292Z,19.49
2018-08-30T07:42:15.455Z,19.46
2018-08-30T07:44:42.615Z,19.34
2018-08-30T07:47:09.817Z,19.40
2018-08-30T07:49:36.894Z,19.55
2018-08-30T07:52:04.029Z,19.65
2018-08-30T07:54:31.284Z,19.56
2018-08-30T07:56:58.370Z,19.65
2018-08-30T07:59:25.903Z,19.82
2018-08-30T08:01:53.061Z,19.82
2018-08-30T08:04:20.869Z,19.91
2018-08-30T08:06:48.037Z,19.71
2018-08-30T08:09:15.338Z,19.61
2018-08-30T08:11:42.459Z,19.72
2018-08-30T08:14:09.743Z,19.69
2018-08-30T08:16:36.884Z,19.62
2018-08-30T08:19:04.815Z,19.69
2018-08-30T08:21:31.981Z,19.84
2018-08-30T08:23:59.220Z,19.72
2018-08-30T08:26:26.347Z,19.72
2018-08-30T08:28:53.823Z,19.68
2018-08-30T08:31:21.122Z,19.60
2018-08-30T08:33:48.194Z,19.75
2018-08-30T08:36:15.369Z,19.84
2018-08-30T08:38:42.735Z,19.79
2018-08-30T08:41:09.973Z,19.79
2018-08-30T08:43:37.096Z,19.87
2018-08-30T08:46:04.252Z,19.94
2018-08-30T08:48:31.456Z,20.21
2018-08-30T08:50:58.633Z,20.37
2018-08-30T08:53:25.753Z,20.38
2018-08-30T08:55:52.876Z,20.39
2018-08-30T08:58:20.005Z,20.32
2018-08-30T09:00:47.128Z,20.24
2018-08-30T09:03:14.251Z,20.23
2018-08-30T09:05:41.474Z,20.26
2018-08-30T09:08:08.701Z,20.17
2018-08-30T09:10:35.901Z,20.28
2018-08-30T09:13:03.099Z,20.36
2018-08-30T09:15:30.345Z,20.34
2018-08-30T09:17:57.585Z,20.36
2018-08-30T09:20:24.723Z,20.45
2018-08-30T09:22:52.302Z,20.34
2018-08-30T09:25:19.671Z,20.29
2018-08-30T09:27:47.757Z,20.34
2018-08-30T09:30:14.990Z,20.24
2018-08-30T09:32:42.135Z,20.13
2018-08-30T09:35:09.308Z,19.95
2018-08-30T09:37:36.556Z,19.97
2018-08-30T09:40:03.722Z,19.89
2018-08-30T09:42:30.912Z,19.90
2018-08-30T09:44:58.072Z,19.88
2018-08-30T09:47:25.213Z,19.95
2018-08-30T09:49:52.525Z,20.04
2018-08-30T09:52:19.573Z,20.22
2018-08-30T09:54:46.713Z,20.24
2018-08-30T09:57:13.994Z,20.07
2018-08-30T09:59:41.039Z,19.88
2018-08-30T10:02:13.802Z,19.88
2018-08-30T10:04:41.071Z,19.98
2018-08-30T10:07:08.229Z,20.03
2018-08-30T10:09:35.452Z,20.18
2018-08-30T10:12:02.684Z,20.30
2018-08-30T10:14:30.848Z,20.53
2018-08-30T10:16:58.067Z,20.35
2018-08-30T10:19:25.206Z,20.49
2018-08-30T10:21:52.416Z,20.70
2018-08-30T10:24:19.611Z,20.80
2018-08-30T10:26:46.757Z,21.15
2018-08-30T10:29:13.885Z,21.33
2018-08-30T10:31:41.122Z,21.38
2018-08-30T10:34:08.211Z,20.99
2018-08-30T10:36:35.430Z,20.96
2018-08-30T10:39:04.368Z,20.82
2018-08-30T10:41:31.594Z,20.63
2018-08-30T10:43:58.824Z,20.37
2018-08-30T10:46:25.976Z,20.41
2018-08-30T10:48:53.106Z,20.53
2018-08-30T10:51:20.284Z,20.55
2018-08-30T10:53:47.509Z,20.49
2018-08-30T10:56:14.834Z,20.68
2018-08-30T10:58:42.876Z,20.79
2018-08-30T11:01:10.018Z,21.04
2018-08-30T11:03:37.332Z,20.53
2018-08-30T11:06:04.681Z,20.74
2018-08-30T11:08:31.945Z,21.01
2018-08-30T11:10:59.185Z,21.28
2018-08-30T11:13:26.425Z,21.34
2018-08-30T11:15:53.572Z,21.36
2018-08-30T11:18:20.791Z,21.64
2018-08-30T11:20:47.938Z,21.93
2018-08-30T11:23:15.120Z,22.05
2018-08-30T11:25:42.687Z,21.70
2018-08-30T11:28:10.159Z,22.03
2018-08-30T11:30:37.322Z,22.01
2018-08-30T11:33:04.738Z,21.99
2018-08-30T11:35:31.945Z,22.11
2018-08-30T11:37:59.147Z,22.52
2018-08-30T11:40:26.290Z,22.56
2018-08-30T11:42:53.482Z,22.87
2018-08-30T11:45:20.806Z,22.86
2018-08-30T11:47:47.945Z,22.86
2018-08-30T11:50:15.186Z,22.74
2018-08-30T11:52:42.400Z,22.97
2018-08-30T11:55:09.542Z,22.93
2018-08-30T11:57:37.959Z,22.97
2018-08-30T12:00:05.746Z,22.90
2018-08-30T12:02:33.137Z,22.72
2018-08-30T12:05:00.333Z,22.38
2018-08-30T12:07:27.588Z,22.27
2018-08-30T12:09:56.844Z,22.42
2018-08-30T12:12:22.562Z,22.79
2018-08-30T12:14:50.471Z,22.76
2018-08-30T12:17:17.736Z,23.11
2018-08-30T12:19:44.909Z,23.15
2018-08-30T12:22:12.394Z,23.11
2018-08-30T12:24:40.053Z,22.99
2018-08-30T12:27:07.292Z,22.89
2018-08-30T12:29:34.528Z,22.78
2018-08-30T12:32:03.387Z,22.66
2018-08-30T12:34:30.673Z,22.66
2018-08-30T12:36:57.813Z,22.43
2018-08-30T12:39:25.466Z,22.46
2018-08-30T12:41:52.909Z,22.58
2018-08-30T12:44:20.069Z,22.48
2018-08-30T12:46:47.319Z,22.22
2018-08-30T12:49:14.575Z,22.27
2018-08-30T12:51:42.605Z,22.39
2018-08-30T12:54:09.734Z,22.31
2018-08-30T12:56:36.881Z,22.14
2018-08-30T12:59:09.766Z,22.21
2018-08-30T13:01:36.905Z,22.27
2018-08-30T13:04:04.594Z,22.24
2018-08-30T13:06:32.141Z,22.38
2018-08-30T13:08:59.513Z,22.45
2018-08-30T13:11:26.598Z,22.50
2018-08-30T13:13:53.867Z,22.58
2018-08-30T13:16:21.411Z,22.63
2018-08-30T13:18:48.548Z,22.33
2018-08-30T13:21:15.890Z,22.32
2018-08-30T13:23:43.654Z,22.26
2018-08-30T13:26:11.324Z,22.18
2018-08-30T13:28:38.741Z,22.10
2018-08-30T13:31:06.007Z,22.04
2018-08-30T13:33:33.176Z,21.88
2018-08-30T13:36:00.598Z,21.97
2018-08-30T13:38:28.051Z,22.11
2018-08-30T13:40:55.295Z,21.86
2018-08-30T13:43:22.226Z,21.97
2018-08-30T13:45:49.407Z,22.14
2018-08-30T13:48:16.461Z,22.14
2018-08-30T13:50:43.913Z,22.24
2018-08-30T13:53:11.318Z,22.19
2018-08-30T13:55:38.595Z,22.07
2018-08-30T13:58:06.843Z,21.88
2018-08-30T14:00:34.129Z,22.03
2018-08-30T14:03:00.983Z,22.16
2018-08-30T14:05:28.094Z,22.28
2018-08-30T14:07:55.421Z,22.19
2018-08-30T14:10:23.056Z,22.28
2018-08-30T14:12:50.204Z,21.93
2018-08-30T14:15:17.478Z,21.88
2018-08-30T14:17:44.284Z,22.00
2018-08-30T14:20:11.521Z,22.11
2018-08-30T14:22:40.610Z,22.08
2018-08-30T14:25:09.273Z,22.17
2018-08-30T14:27:36.503Z,22.05
2018-08-30T14:30:03.787Z,21.99
2018-08-30T14:32:31.023Z,21.97
2018-08-30T14:34:58.230Z,22.14
2018-08-30T14:37:25.740Z,22.28
2018-08-30T14:39:53.473Z,22.08
2018-08-30T14:42:20.756Z,22.03
2018-08-30T14:44:48.091Z,21.89
2018-08-30T14:47:15.264Z,21.78
2018-08-30T14:49:42.412Z,21.46
2018-08-30T14:52:09.656Z,21.50
2018-08-30T14:54:36.872Z,21.38
2018-08-30T14:57:04.319Z,21.46
2018-08-30T14:59:31.541Z,21.28
2018-08-30T15:01:58.662Z,21.20
2018-08-30T15:04:25.876Z,21.22
2018-08-30T15:06:53.049Z,21.08
2018-08-30T15:09:20.411Z,21.11
2018-08-30T15:11:47.696Z,21.08
2018-08-30T15:14:14.954Z,21.20
2018-08-30T15:16:42.200Z,21.21
2018-08-30T15:19:11.303Z,21.24
2018-08-30T15:21:38.455Z,21.19
2018-08-30T15:24:05.712Z,20.95
2018-08-30T15:26:32.939Z,20.94
2018-08-30T15:29:00.172Z,21.14
2018-08-30T15:31:27.388Z,21.17
2018-08-30T15:33:54.676Z,21.18
2018-08-30T15:36:22.221Z,21.17
2018-08-30T15:38:49.314Z,21.10
2018-08-30T15:41:16.623Z,21.09
2018-08-30T15:43:43.877Z,21.16
2018-08-30T15:46:11.381Z,20.93
2018-08-30T15:48:38.781Z,20.99
2018-08-30T15:51:05.911Z,21.04
2018-08-30T15:53:33.347Z,20.90
2018-08-30T15:56:01.193Z,21.11
2018-08-30T15:58:28.374Z,20.96
2018-08-30T16:00:55.546Z,21.01
2018-08-30T16:03:22.710Z,21.13
2018-08-30T16:05:49.830Z,21.02
2018-08-30T16:08:17.010Z,21.12
2018-08-30T16:10:44.134Z,21.24
2018-08-30T16:13:11.566Z,21.29
2018-08-30T16:15:38.630Z,21.34
2018-08-30T16:20:40.191Z,21.20
2018-08-30T16:23:14.589Z,21.10
2018-08-30T16:25:42.073Z,21.19
2018-08-30T16:28:10.091Z,21.18
2018-08-30T16:30:37.300Z,21.22
2018-08-30T16:33:04.389Z,21.19
2018-08-30T16:35:31.591Z,21.14
2018-08-30T16:37:58.790Z,21.13
2018-08-30T16:40:25.954Z,21.25
2018-08-30T16:42:53.145Z,21.28
2018-08-30T16:45:20.341Z,21.34
2018-08-30T16:47:47.544Z,21.40
2018-08-30T16:50:14.763Z,21.37
2018-08-30T16:52:42.099Z,21.32
2018-08-30T16:55:09.331Z,21.31
2018-08-30T16:57:36.571Z,21.38
2018-08-30T17:00:03.851Z,21.29
2018-08-30T17:02:31.006Z,21.27
2018-08-30T17:04:58.758Z,21.31
2018-08-30T17:07:26.010Z,21.38
2018-08-30T17:09:53.170Z,21.44
2018-08-30T17:12:20.530Z,21.41
2018-08-30T17:14:47.759Z,21.38
2018-08-30T17:17:15.073Z,21.29
2018-08-30T17:19:42.114Z,21.32
2018-08-30T17:22:09.477Z,21.40
2018-08-30T17:24:36.624Z,21.33
2018-08-30T17:27:03.877Z,21.25
2018-08-30T17:29:31.044Z,21.12
2018-08-30T17:31:58.202Z,21.11
2018-08-30T17:34:25.398Z,21.07
2018-08-30T17:36:52.692Z,21.05
2018-08-30T17:39:19.852Z,21.07
2018-08-30T17:41:47.094Z,21.02
2018-08-30T17:44:14.758Z,20.92
2018-08-30T17:46:41.948Z,20.87
2018-08-30T17:49:09.135Z,20.84
2018-08-30T17:51:36.376Z,20.74
2018-08-30T17:54:03.582Z,20.74
2018-08-30T17:56:30.819Z,20.67
2018-08-30T17:59:00.366Z,20.68
2018-08-30T18:01:27.649Z,20.62
2018-08-30T18:03:54.707Z,20.56
2018-08-30T18:06:21.853Z,20.68
2018-08-30T18:08:49.235Z,20.71
2018-08-30T18:11:16.246Z,20.62
2018-08-30T18:13:43.422Z,20.56
2018-08-30T18:16:10.545Z,20.48
2018-08-30T18:18:37.781Z,20.37
2018-08-30T18:21:04.854Z,20.28
2018-08-30T18:23:32.171Z,20.21
2018-08-30T18:25:59.343Z,20.19
2018-08-30T18:28:26.527Z,20.13
2018-08-30T18:30:53.654Z,20.11
2018-08-30T18:33:20.838Z,20.15
2018-08-30T18:35:47.994Z,20.17
2018-08-30T18:38:15.595Z,20.07
2018-08-30T18:40:42.876Z,19.98
2018-08-30T18:43:10.077Z,19.96
2018-08-30T18:45:37.251Z,19.85
2018-08-30T18:48:04.485Z,19.76
2018-08-30T18:50:31.691Z,19.72
2018-08-30T18:52:58.875Z,19.74
2018-08-30T18:55:26.037Z,19.66
2018-08-30T18:57:53.295Z,19.55
2018-08-30T19:00:20.572Z,19.46
2018-08-30T19:02:48.108Z,19.44
2018-08-30T19:05:15.310Z,19.41
2018-08-30T19:07:42.458Z,19.33
2018-08-30T19:10:09.993Z,19.37
2018-08-30T19:12:37.238Z,19.45
2018-08-30T19:15:10.036Z,19.56
2018-08-30T19:17:42.985Z,19.53
2018-08-30T19:20:10.181Z,19.42
2018-08-30T19:22:37.317Z,19.40
2018-08-30T19:25:10.142Z,19.32
2018-08-30T19:27:37.314Z,19.29
2018-08-30T19:30:10.252Z,19.33
2018-08-30T19:32:37.403Z,19.26
2018-08-30T19:35:10.493Z,19.26
2018-08-30T19:37:37.691Z,19.17
2018-08-30T19:40:08.000Z,19.15
2018-08-30T19:42:35.326Z,19.16
2018-08-30T19:45:02.432Z,19.16
2018-08-30T19:47:29.627Z,19.08
2018-08-30T19:49:56.811Z,19.02
2018-08-30T19:52:24.057Z,18.98
2018-08-30T19:54:51.253Z,18.93
2018-08-30T19:57:18.516Z,18.85
2018-08-30T19:59:45.666Z,18.82
2018-08-30T20:02:12.817Z,18.90
2018-08-30T20:04:40.001Z,18.83
2018-08-30T20:07:07.155Z,18.80
2018-08-30T20:09:34.601Z,18.82
2018-08-30T20:12:01.796Z,18.68
2018-08-30T20:14:28.941Z,18.51
2018-08-30T20:16:56.120Z,18.47
2018-08-30T20:19:23.565Z,18.48
2018-08-30T20:21:50.727Z,18.41
2018-08-30T20:24:17.850Z,18.38
2018-08-30T20:26:45.188Z,18.38
2018-08-30T20:29:12.498Z,18.36
2018-08-30T20:31:39.669Z,18.25
2018-08-30T20:34:06.834Z,18.27
2018-08-30T20:36:34.023Z,18.23
2018-08-30T20:39:01.214Z,18.18
2018-08-30T20:41:28.454Z,18.30
2018-08-30T20:43:55.658Z,18.37
2018-08-30T20:46:22.852Z,18.34
2018-08-30T20:48:50.042Z,18.23
2018-08-30T20:51:17.183Z,18.19
2018-08-30T20:53:44.387Z,18.14
2018-08-30T20:56:11.585Z,18.16
2018-08-30T20:58:38.761Z,18.14
2018-08-30T21:01:05.874Z,18.15
2018-08-30T21:03:33.050Z,18.23
2018-08-30T21:06:00.372Z,18.33
2018-08-30T21:08:27.526Z,18.33
2018-08-30T21:10:54.665Z,18.21
2018-08-30T21:13:21.796Z,18.12
2018-08-30T21:15:49.033Z,18.20
2018-08-30T21:18:16.126Z,18.07
2018-08-30T21:20:43.274Z,18.04
2018-08-30T21:23:10.456Z,18.17
2018-08-30T21:25:37.598Z,18.13
2018-08-30T21:28:05.017Z,18.07
2018-08-30T21:30:32.278Z,18.01
2018-08-30T21:32:59.448Z,18.01
2018-08-30T21:35:26.689Z,18.11
2018-08-30T21:37:54.471Z,18.03
2018-08-30T21:40:21.642Z,18.07
2018-08-30T21:42:48.786Z,18.01
2018-08-30T21:45:16.085Z,17.95
2018-08-30T21:47:43.180Z,17.88
2018-08-30T21:50:10.376Z,17.85
2018-08-30T21:52:37.669Z,17.84
2018-08-30T21:55:05.110Z,17.77
2018-08-30T21:57:32.342Z,17.74
2018-08-30T21:59:59.505Z,17.74
2018-08-30T22:02:26.741Z,17.80
2018-08-30T22:04:53.828Z,17.78
2018-08-30T22:07:20.971Z,17.72
2018-08-30T22:09:48.146Z,17.81
2018-08-30T22:12:15.437Z,17.93
2018-08-30T22:14:42.588Z,17.96
2018-08-30T22:17:09.760Z,17.94
2018-08-30T22:19:36.890Z,17.93
2018-08-30T22:22:04.082Z,17.98
2018-08-30T22:24:31.220Z,17.95
2018-08-30T22:26:58.350Z,17.93
2018-08-30T22:29:25.612Z,17.96
2018-08-30T22:31:52.752Z,17.99
2018-08-30T22:34:19.888Z,17.97
2018-08-30T22:36:47.269Z,17.93
2018-08-30T22:39:14.542Z,17.87
2018-08-30T22:41:41.729Z,17.86
2018-08-30T22:44:08.956Z,17.84
2018-08-30T22:46:36.167Z,17.80
2018-08-30T22:49:03.437Z,17.76
2018-08-30T22:51:30.622Z,17.73
2018-08-30T22:53:57.810Z,17.62
2018-08-30T22:56:25.026Z,17.51
2018-08-30T22:58:52.292Z,17.45
2018-08-30T23:01:19.675Z,17.45
2018-08-30T23:03:46.822Z,17.45
2018-08-30T23:06:13.947Z,17.38
2018-08-30T23:08:41.085Z,17.36
2018-08-30T23:11:08.197Z,17.41
2018-08-30T23:13:35.396Z,17.39
2018-08-30T23:16:02.604Z,17.38
2018-08-30T23:18:29.759Z,17.24
2018-08-30T23:20:56.963Z,17.14
2018-08-30T23:23:24.077Z,17.24
2018-08-30T23:25:51.249Z,17.31
2018-08-30T23:28:18.395Z,17.39
2018-08-30T23:30:45.648Z,17.47
2018-08-30T23:33:12.793Z,17.45
2018-08-30T23:35:40.016Z,17.39
2018-08-30T23:38:07.442Z,17.47
2018-08-30T23:40:34.776Z,17.42
2018-08-30T23:43:01.899Z,17.28
2018-08-30T23:45:29.094Z,17.24
2018-08-30T23:47:56.201Z,17.24
2018-08-30T23:50:23.338Z,17.18
2018-08-30T23:52:50.444Z,17.16
2018-08-30T23:55:17.594Z,17.19
2018-08-30T23:57:56.494Z,17.14
